sensor_id;sensor_type;location;lat;lon;timestamp;temperature;humidity
1958;DHT22;979;51.076;13.748;2023-06-24T00:00:08;19.10;99.90
1958;DHT22;979;51.076;13.748;2023-06-24T00:02:39;19.20;99.90
1958;DHT22;979;51.076;13.748;2023-06-24T00:05:12;19.20;99.90
1958;DHT22;979;51.076;13.748;2023-06-24T00:07:40;19.20;99.90
1958;DHT22;979;51.076;13.748;2023-06-24T00:10:13;19.20;99.90
1958;DHT22;979;51.076;13.748;2023-06-24T00:13:00;19.20;99.90
1958;DHT22;979;51.076;13.748;2023-06-24T00:15:29;19.20;99.90
1958;DHT22;979;51.076;13.748;2023-06-24T00:18:00;19.10;99.90
1958;DHT22;979;51.076;13.748;2023-06-24T00:20:35;19.10;99.90
1958;DHT22;979;51.076;13.748;2023-06-24T00:23:03;19.00;99.90
1958;DHT22;979;51.076;13.748;2023-06-24T00:25:32;19.00;99.90
1958;DHT22;979;51.076;13.748;2023-06-24T00:28:03;19.00;99.90
1958;DHT22;979;51.076;13.748;2023-06-24T00:30:32;18.90;99.90
1958;DHT22;979;51.076;13.748;2023-06-24T00:33:00;18.90;99.90
1958;DHT22;979;51.076;13.748;2023-06-24T00:35:32;18.90;99.90
1958;DHT22;979;51.076;13.748;2023-06-24T00:38:01;18.90;99.90
1958;DHT22;979;51.076;13.748;2023-06-24T00:40:30;18.90;99.90
1958;DHT22;979;51.076;13.748;2023-06-24T00:42:59;18.90;99.90
1958;DHT22;979;51.076;13.748;2023-06-24T00:45:31;18.90;99.90
1958;DHT22;979;51.076;13.748;2023-06-24T00:47:59;18.90;99.90
1958;DHT22;979;51.076;13.748;2023-06-24T00:50:29;18.90;99.90
1958;DHT22;979;51.076;13.748;2023-06-24T00:52:58;18.90;99.90
1958;DHT22;979;51.076;13.748;2023-06-24T00:55:27;18.90;99.90
1958;DHT22;979;51.076;13.748;2023-06-24T00:57:56;18.90;99.90
1958;DHT22;979;51.076;13.748;2023-06-24T01:00:26;18.90;99.90
1958;DHT22;979;51.076;13.748;2023-06-24T01:02:55;18.90;99.90
1958;DHT22;979;51.076;13.748;2023-06-24T01:05:26;18.90;99.90
1958;DHT22;979;51.076;13.748;2023-06-24T01:07:56;18.90;99.90
1958;DHT22;979;51.076;13.748;2023-06-24T01:10:26;18.90;99.90
1958;DHT22;979;51.076;13.748;2023-06-24T01:12:57;18.90;99.90
1958;DHT22;979;51.076;13.748;2023-06-24T01:15:25;18.90;99.90
1958;DHT22;979;51.076;13.748;2023-06-24T01:18:01;18.90;99.90
1958;DHT22;979;51.076;13.748;2023-06-24T01:20:36;18.90;99.90
1958;DHT22;979;51.076;13.748;2023-06-24T01:23:24;18.90;99.90
1958;DHT22;979;51.076;13.748;2023-06-24T01:26:20;18.90;99.90
1958;DHT22;979;51.076;13.748;2023-06-24T01:29:09;19.00;99.90
1958;DHT22;979;51.076;13.748;2023-06-24T01:31:47;18.90;99.90
1958;DHT22;979;51.076;13.748;2023-06-24T01:34:24;18.90;99.90
1958;DHT22;979;51.076;13.748;2023-06-24T01:37:00;18.90;99.90
1958;DHT22;979;51.076;13.748;2023-06-24T01:39:36;18.90;99.90
1958;DHT22;979;51.076;13.748;2023-06-24T01:42:08;19.00;99.90
1958;DHT22;979;51.076;13.748;2023-06-24T01:44:40;18.90;99.90
1958;DHT22;979;51.076;13.748;2023-06-24T01:47:11;19.00;99.90
1958;DHT22;979;51.076;13.748;2023-06-24T01:49:45;19.00;99.90
1958;DHT22;979;51.076;13.748;2023-06-24T01:52:14;19.00;99.90
1958;DHT22;979;51.076;13.748;2023-06-24T01:54:45;19.00;99.90
1958;DHT22;979;51.076;13.748;2023-06-24T01:57:15;19.10;99.90
1958;DHT22;979;51.076;13.748;2023-06-24T01:59:46;19.00;99.90
1958;DHT22;979;51.076;13.748;2023-06-24T02:02:17;19.10;99.90
1958;DHT22;979;51.076;13.748;2023-06-24T02:04:48;19.10;99.90
1958;DHT22;979;51.076;13.748;2023-06-24T02:07:18;19.10;99.90
1958;DHT22;979;51.076;13.748;2023-06-24T02:09:48;19.10;99.90
1958;DHT22;979;51.076;13.748;2023-06-24T02:12:17;19.20;99.90
1958;DHT22;979;51.076;13.748;2023-06-24T02:14:47;19.20;99.90
1958;DHT22;979;51.076;13.748;2023-06-24T02:17:17;19.20;99.90
1958;DHT22;979;51.076;13.748;2023-06-24T02:19:48;19.20;99.90
1958;DHT22;979;51.076;13.748;2023-06-24T02:22:18;19.20;99.90
1958;DHT22;979;51.076;13.748;2023-06-24T02:24:46;19.20;99.90
1958;DHT22;979;51.076;13.748;2023-06-24T02:27:16;19.20;99.90
1958;DHT22;979;51.076;13.748;2023-06-24T02:29:45;19.20;99.90
1958;DHT22;979;51.076;13.748;2023-06-24T02:32:14;19.20;99.90
1958;DHT22;979;51.076;13.748;2023-06-24T02:34:44;19.20;99.90
1958;DHT22;979;51.076;13.748;2023-06-24T02:37:14;19.30;99.90
1958;DHT22;979;51.076;13.748;2023-06-24T02:39:42;19.20;99.90
1958;DHT22;979;51.076;13.748;2023-06-24T02:42:11;19.30;99.90
1958;DHT22;979;51.076;13.748;2023-06-24T02:44:40;19.20;99.90
1958;DHT22;979;51.076;13.748;2023-06-24T02:47:12;19.20;99.90
1958;DHT22;979;51.076;13.748;2023-06-24T02:49:44;19.20;99.90
1958;DHT22;979;51.076;13.748;2023-06-24T02:52:15;19.20;99.90
1958;DHT22;979;51.076;13.748;2023-06-24T02:54:44;19.20;99.90
1958;DHT22;979;51.076;13.748;2023-06-24T02:57:22;19.10;99.90
1958;DHT22;979;51.076;13.748;2023-06-24T03:00:12;19.20;99.90
1958;DHT22;979;51.076;13.748;2023-06-24T03:03:05;19.20;99.90
1958;DHT22;979;51.076;13.748;2023-06-24T03:05:41;18.90;99.90
1958;DHT22;979;51.076;13.748;2023-06-24T03:08:12;19.20;99.90
1958;DHT22;979;51.076;13.748;2023-06-24T03:10:41;19.10;99.90
1958;DHT22;979;51.076;13.748;2023-06-24T03:13:16;19.10;99.90
1958;DHT22;979;51.076;13.748;2023-06-24T03:15:50;19.10;99.90
1958;DHT22;979;51.076;13.748;2023-06-24T03:18:20;19.10;99.90
1958;DHT22;979;51.076;13.748;2023-06-24T03:20:50;19.10;99.90
1958;DHT22;979;51.076;13.748;2023-06-24T03:23:23;19.10;99.90
1958;DHT22;979;51.076;13.748;2023-06-24T03:25:54;19.00;99.90
1958;DHT22;979;51.076;13.748;2023-06-24T03:28:23;19.00;99.90
1958;DHT22;979;51.076;13.748;2023-06-24T03:31:00;19.00;99.90
1958;DHT22;979;51.076;13.748;2023-06-24T03:33:28;18.90;99.90
1958;DHT22;979;51.076;13.748;2023-06-24T03:35:58;18.80;99.90
1958;DHT22;979;51.076;13.748;2023-06-24T03:38:30;18.80;99.90
1958;DHT22;979;51.076;13.748;2023-06-24T03:40:58;18.80;99.90
1958;DHT22;979;51.076;13.748;2023-06-24T03:43:27;18.70;99.90
1958;DHT22;979;51.076;13.748;2023-06-24T03:45:56;18.70;99.90
1958;DHT22;979;51.076;13.748;2023-06-24T03:48:24;18.60;99.90
1958;DHT22;979;51.076;13.748;2023-06-24T03:50:53;18.60;99.90
1958;DHT22;979;51.076;13.748;2023-06-24T03:53:23;18.60;99.90
1958;DHT22;979;51.076;13.748;2023-06-24T03:55:53;18.60;99.90
1958;DHT22;979;51.076;13.748;2023-06-24T03:58:21;18.60;99.90
1958;DHT22;979;51.076;13.748;2023-06-24T04:00:50;18.60;99.90
1958;DHT22;979;51.076;13.748;2023-06-24T04:03:18;18.60;99.90
1958;DHT22;979;51.076;13.748;2023-06-24T04:05:46;18.60;99.90
1958;DHT22;979;51.076;13.748;2023-06-24T04:08:20;18.60;99.90
1958;DHT22;979;51.076;13.748;2023-06-24T04:10:50;18.60;99.90
1958;DHT22;979;51.076;13.748;2023-06-24T04:13:19;18.60;99.90
1958;DHT22;979;51.076;13.748;2023-06-24T04:15:47;18.60;99.90
1958;DHT22;979;51.076;13.748;2023-06-24T04:18:15;18.60;99.90
1958;DHT22;979;51.076;13.748;2023-06-24T04:20:44;18.70;99.90
1958;DHT22;979;51.076;13.748;2023-06-24T04:23:13;18.70;99.90
1958;DHT22;979;51.076;13.748;2023-06-24T04:25:43;18.70;99.90
1958;DHT22;979;51.076;13.748;2023-06-24T04:28:12;18.80;99.90
1958;DHT22;979;51.076;13.748;2023-06-24T04:30:41;18.90;99.90
1958;DHT22;979;51.076;13.748;2023-06-24T04:33:09;18.90;99.90
1958;DHT22;979;51.076;13.748;2023-06-24T04:35:38;19.00;99.90
1958;DHT22;979;51.076;13.748;2023-06-24T04:38:06;19.00;99.90
1958;DHT22;979;51.076;13.748;2023-06-24T04:40:35;19.00;99.90
1958;DHT22;979;51.076;13.748;2023-06-24T04:43:03;19.10;99.90
1958;DHT22;979;51.076;13.748;2023-06-24T04:45:33;19.10;99.90
1958;DHT22;979;51.076;13.748;2023-06-24T04:48:02;19.10;99.90
1958;DHT22;979;51.076;13.748;2023-06-24T04:50:30;19.10;99.90
1958;DHT22;979;51.076;13.748;2023-06-24T04:52:59;19.10;99.90
1958;DHT22;979;51.076;13.748;2023-06-24T04:55:28;19.10;99.90
1958;DHT22;979;51.076;13.748;2023-06-24T04:57:58;19.20;99.90
1958;DHT22;979;51.076;13.748;2023-06-24T05:00:26;19.30;99.90
1958;DHT22;979;51.076;13.748;2023-06-24T05:02:56;19.30;99.90
1958;DHT22;979;51.076;13.748;2023-06-24T05:05:27;19.30;99.90
1958;DHT22;979;51.076;13.748;2023-06-24T05:07:55;19.40;99.90
1958;DHT22;979;51.076;13.748;2023-06-24T05:10:24;19.50;99.90
1958;DHT22;979;51.076;13.748;2023-06-24T05:12:52;19.70;99.90
1958;DHT22;979;51.076;13.748;2023-06-24T05:15:20;19.80;99.90
1958;DHT22;979;51.076;13.748;2023-06-24T05:17:48;19.90;99.90
1958;DHT22;979;51.076;13.748;2023-06-24T05:20:21;19.90;99.90
1958;DHT22;979;51.076;13.748;2023-06-24T05:22:49;19.90;99.90
1958;DHT22;979;51.076;13.748;2023-06-24T05:25:18;20.00;99.90
1958;DHT22;979;51.076;13.748;2023-06-24T05:27:46;20.00;99.90
1958;DHT22;979;51.076;13.748;2023-06-24T05:30:14;20.10;99.90
1958;DHT22;979;51.076;13.748;2023-06-24T05:32:43;20.00;99.90
1958;DHT22;979;51.076;13.748;2023-06-24T05:35:11;20.10;99.90
1958;DHT22;979;51.076;13.748;2023-06-24T05:37:40;20.10;99.90
1958;DHT22;979;51.076;13.748;2023-06-24T05:40:11;20.10;99.90
1958;DHT22;979;51.076;13.748;2023-06-24T05:42:40;20.10;99.90
1958;DHT22;979;51.076;13.748;2023-06-24T05:45:09;20.10;99.90
1958;DHT22;979;51.076;13.748;2023-06-24T05:47:37;20.10;99.90
1958;DHT22;979;51.076;13.748;2023-06-24T05:50:06;20.10;99.90
1958;DHT22;979;51.076;13.748;2023-06-24T05:52:34;20.10;99.90
1958;DHT22;979;51.076;13.748;2023-06-24T05:55:05;20.10;99.90
1958;DHT22;979;51.076;13.748;2023-06-24T05:57:33;20.10;99.90
1958;DHT22;979;51.076;13.748;2023-06-24T06:00:02;20.10;99.90
1958;DHT22;979;51.076;13.748;2023-06-24T06:02:39;20.10;99.90
1958;DHT22;979;51.076;13.748;2023-06-24T06:05:08;20.10;99.90
1958;DHT22;979;51.076;13.748;2023-06-24T06:07:36;20.10;99.90
1958;DHT22;979;51.076;13.748;2023-06-24T06:10:08;20.00;99.90
1958;DHT22;979;51.076;13.748;2023-06-24T06:12:37;19.90;99.90
1958;DHT22;979;51.076;13.748;2023-06-24T06:15:09;19.90;99.90
1958;DHT22;979;51.076;13.748;2023-06-24T06:17:38;19.80;99.90
1958;DHT22;979;51.076;13.748;2023-06-24T06:20:08;19.80;99.90
1958;DHT22;979;51.076;13.748;2023-06-24T06:22:37;19.80;99.90
1958;DHT22;979;51.076;13.748;2023-06-24T06:25:06;19.50;99.90
1958;DHT22;979;51.076;13.748;2023-06-24T06:27:35;19.70;99.90
1958;DHT22;979;51.076;13.748;2023-06-24T06:30:05;19.70;99.90
1958;DHT22;979;51.076;13.748;2023-06-24T06:32:36;19.70;99.90
1958;DHT22;979;51.076;13.748;2023-06-24T06:35:05;19.70;99.90
1958;DHT22;979;51.076;13.748;2023-06-24T06:37:33;19.70;99.90
1958;DHT22;979;51.076;13.748;2023-06-24T06:40:02;19.70;99.90
1958;DHT22;979;51.076;13.748;2023-06-24T06:42:30;19.70;99.90
1958;DHT22;979;51.076;13.748;2023-06-24T06:45:00;19.60;99.90
1958;DHT22;979;51.076;13.748;2023-06-24T06:47:29;19.60;99.90
1958;DHT22;979;51.076;13.748;2023-06-24T06:50:01;19.50;99.90
1958;DHT22;979;51.076;13.748;2023-06-24T06:52:29;19.50;99.90
1958;DHT22;979;51.076;13.748;2023-06-24T06:55:00;19.40;99.90
1958;DHT22;979;51.076;13.748;2023-06-24T06:57:28;19.40;99.90
1958;DHT22;979;51.076;13.748;2023-06-24T06:59:56;19.40;99.90
1958;DHT22;979;51.076;13.748;2023-06-24T07:02:26;19.40;99.90
1958;DHT22;979;51.076;13.748;2023-06-24T07:04:55;19.40;99.90
1958;DHT22;979;51.076;13.748;2023-06-24T07:07:23;19.40;99.90
1958;DHT22;979;51.076;13.748;2023-06-24T07:09:51;19.40;99.90
1958;DHT22;979;51.076;13.748;2023-06-24T07:12:20;19.40;99.90
1958;DHT22;979;51.076;13.748;2023-06-24T07:14:50;19.50;99.90
1958;DHT22;979;51.076;13.748;2023-06-24T07:17:18;19.50;99.90
1958;DHT22;979;51.076;13.748;2023-06-24T07:19:48;19.50;99.90
1958;DHT22;979;51.076;13.748;2023-06-24T07:22:16;19.50;99.90
1958;DHT22;979;51.076;13.748;2023-06-24T07:24:45;19.60;99.90
1958;DHT22;979;51.076;13.748;2023-06-24T07:27:13;19.60;99.90
1958;DHT22;979;51.076;13.748;2023-06-24T07:29:42;19.60;99.90
1958;DHT22;979;51.076;13.748;2023-06-24T07:32:10;19.70;99.90
1958;DHT22;979;51.076;13.748;2023-06-24T07:34:38;19.80;99.90
1958;DHT22;979;51.076;13.748;2023-06-24T07:37:08;20.00;99.90
1958;DHT22;979;51.076;13.748;2023-06-24T07:39:51;20.10;99.90
1958;DHT22;979;51.076;13.748;2023-06-24T07:42:20;20.10;99.90
1958;DHT22;979;51.076;13.748;2023-06-24T07:44:49;20.20;99.90
1958;DHT22;979;51.076;13.748;2023-06-24T07:47:17;20.30;99.90
1958;DHT22;979;51.076;13.748;2023-06-24T07:49:46;20.40;99.90
1958;DHT22;979;51.076;13.748;2023-06-24T07:52:16;20.60;99.90
1958;DHT22;979;51.076;13.748;2023-06-24T07:54:47;20.90;99.90
1958;DHT22;979;51.076;13.748;2023-06-24T07:57:50;21.10;99.90
1958;DHT22;979;51.076;13.748;2023-06-24T08:00:32;21.30;99.90
1958;DHT22;979;51.076;13.748;2023-06-24T08:03:09;21.50;99.90
1958;DHT22;979;51.076;13.748;2023-06-24T08:05:40;21.50;99.90
1958;DHT22;979;51.076;13.748;2023-06-24T08:08:12;21.30;99.90
1958;DHT22;979;51.076;13.748;2023-06-24T08:10:40;21.30;99.90
1958;DHT22;979;51.076;13.748;2023-06-24T08:13:08;21.60;99.90
1958;DHT22;979;51.076;13.748;2023-06-24T08:15:37;21.60;99.90
1958;DHT22;979;51.076;13.748;2023-06-24T08:18:10;21.70;99.90
1958;DHT22;979;51.076;13.748;2023-06-24T08:20:43;21.70;99.90
1958;DHT22;979;51.076;13.748;2023-06-24T08:23:15;21.70;99.90
1958;DHT22;979;51.076;13.748;2023-06-24T08:25:43;21.80;99.90
1958;DHT22;979;51.076;13.748;2023-06-24T08:28:15;21.80;99.90
1958;DHT22;979;51.076;13.748;2023-06-24T08:30:43;21.90;99.90
1958;DHT22;979;51.076;13.748;2023-06-24T08:33:12;22.00;99.90
1958;DHT22;979;51.076;13.748;2023-06-24T08:35:41;22.10;99.90
1958;DHT22;979;51.076;13.748;2023-06-24T08:38:09;22.20;99.90
1958;DHT22;979;51.076;13.748;2023-06-24T08:40:40;22.30;99.90
1958;DHT22;979;51.076;13.748;2023-06-24T08:43:10;22.40;99.90
1958;DHT22;979;51.076;13.748;2023-06-24T08:45:39;22.40;99.90
1958;DHT22;979;51.076;13.748;2023-06-24T08:48:08;22.50;99.90
1958;DHT22;979;51.076;13.748;2023-06-24T08:50:44;22.60;99.90
1958;DHT22;979;51.076;13.748;2023-06-24T08:53:14;22.70;99.90
1958;DHT22;979;51.076;13.748;2023-06-24T08:55:46;22.70;99.90
1958;DHT22;979;51.076;13.748;2023-06-24T08:58:14;22.70;99.90
1958;DHT22;979;51.076;13.748;2023-06-24T09:00:46;22.70;99.90
1958;DHT22;979;51.076;13.748;2023-06-24T09:03:14;22.70;99.90
1958;DHT22;979;51.076;13.748;2023-06-24T09:05:45;22.80;99.90
1958;DHT22;979;51.076;13.748;2023-06-24T09:08:15;23.00;99.90
1958;DHT22;979;51.076;13.748;2023-06-24T09:10:53;23.10;99.90
1958;DHT22;979;51.076;13.748;2023-06-24T09:13:27;23.00;99.90
1958;DHT22;979;51.076;13.748;2023-06-24T09:16:11;22.90;99.90
1958;DHT22;979;51.076;13.748;2023-06-24T09:18:40;22.80;99.90
1958;DHT22;979;51.076;13.748;2023-06-24T09:21:10;22.80;99.90
1958;DHT22;979;51.076;13.748;2023-06-24T09:23:39;22.80;99.90
1958;DHT22;979;51.076;13.748;2023-06-24T09:26:11;22.80;99.90
1958;DHT22;979;51.076;13.748;2023-06-24T09:28:39;22.80;99.90
1958;DHT22;979;51.076;13.748;2023-06-24T09:31:11;22.90;99.90
1958;DHT22;979;51.076;13.748;2023-06-24T09:33:46;23.10;99.90
1958;DHT22;979;51.076;13.748;2023-06-24T09:36:16;23.30;99.90
1958;DHT22;979;51.076;13.748;2023-06-24T09:38:47;23.30;99.90
1958;DHT22;979;51.076;13.748;2023-06-24T09:41:18;23.30;99.90
1958;DHT22;979;51.076;13.748;2023-06-24T09:43:47;23.30;99.90
1958;DHT22;979;51.076;13.748;2023-06-24T09:46:15;23.20;99.90
1958;DHT22;979;51.076;13.748;2023-06-24T09:48:45;23.20;99.90
1958;DHT22;979;51.076;13.748;2023-06-24T09:51:24;23.20;99.90
1958;DHT22;979;51.076;13.748;2023-06-24T09:53:59;23.40;99.90
1958;DHT22;979;51.076;13.748;2023-06-24T09:56:29;23.50;99.90
1958;DHT22;979;51.076;13.748;2023-06-24T09:58:57;23.70;99.90
1958;DHT22;979;51.076;13.748;2023-06-24T10:01:28;23.70;99.90
1958;DHT22;979;51.076;13.748;2023-06-24T10:03:57;23.70;99.90
1958;DHT22;979;51.076;13.748;2023-06-24T10:06:28;23.70;99.90
1958;DHT22;979;51.076;13.748;2023-06-24T10:08:58;23.70;99.90
1958;DHT22;979;51.076;13.748;2023-06-24T10:11:27;23.90;99.90
1958;DHT22;979;51.076;13.748;2023-06-24T10:13:57;24.00;99.90
1958;DHT22;979;51.076;13.748;2023-06-24T10:16:29;24.20;99.90
1958;DHT22;979;51.076;13.748;2023-06-24T10:19:00;24.40;99.90
1958;DHT22;979;51.076;13.748;2023-06-24T10:21:44;24.70;99.90
1958;DHT22;979;51.076;13.748;2023-06-24T10:24:28;24.80;99.90
1958;DHT22;979;51.076;13.748;2023-06-24T10:27:01;24.70;98.90
1958;DHT22;979;51.076;13.748;2023-06-24T10:29:33;24.80;99.00
1958;DHT22;979;51.076;13.748;2023-06-24T10:32:06;24.80;98.70
1958;DHT22;979;51.076;13.748;2023-06-24T10:34:42;24.90;98.80
1958;DHT22;979;51.076;13.748;2023-06-24T10:37:22;24.80;98.30
1958;DHT22;979;51.076;13.748;2023-06-24T10:39:54;25.10;97.20
1958;DHT22;979;51.076;13.748;2023-06-24T10:42:36;25.00;97.00
1958;DHT22;979;51.076;13.748;2023-06-24T10:45:20;25.00;96.30
1958;DHT22;979;51.076;13.748;2023-06-24T10:47:51;25.00;95.80
1958;DHT22;979;51.076;13.748;2023-06-24T10:50:23;24.90;95.50
1958;DHT22;979;51.076;13.748;2023-06-24T10:52:53;25.10;95.30
1958;DHT22;979;51.076;13.748;2023-06-24T10:55:25;25.10;95.00
1958;DHT22;979;51.076;13.748;2023-06-24T10:57:54;25.40;95.00
1958;DHT22;979;51.076;13.748;2023-06-24T11:00:27;25.10;94.40
1958;DHT22;979;51.076;13.748;2023-06-24T11:03:07;25.10;94.80
1958;DHT22;979;51.076;13.748;2023-06-24T11:05:50;24.80;95.30
1958;DHT22;979;51.076;13.748;2023-06-24T11:08:18;25.60;95.80
1958;DHT22;979;51.076;13.748;2023-06-24T11:10:57;25.90;94.80
1958;DHT22;979;51.076;13.748;2023-06-24T11:18:03;25.80;93.10
1958;DHT22;979;51.076;13.748;2023-06-24T11:20:36;25.90;93.30
1958;DHT22;979;51.076;13.748;2023-06-24T11:23:30;25.80;93.60
1958;DHT22;979;51.076;13.748;2023-06-24T11:30:14;26.20;92.90
1958;DHT22;979;51.076;13.748;2023-06-24T11:33:04;26.10;94.00
1958;DHT22;979;51.076;13.748;2023-06-24T11:35:32;26.90;94.00
1958;DHT22;979;51.076;13.748;2023-06-24T11:38:03;27.60;94.10
1958;DHT22;979;51.076;13.748;2023-06-24T11:40:42;28.10;93.50
1958;DHT22;979;51.076;13.748;2023-06-24T11:50:04;28.90;90.30
1958;DHT22;979;51.076;13.748;2023-06-24T11:52:38;29.20;91.60
1958;DHT22;979;51.076;13.748;2023-06-24T11:55:16;30.10;91.80
1958;DHT22;979;51.076;13.748;2023-06-24T11:57:55;31.20;90.60
1958;DHT22;979;51.076;13.748;2023-06-24T12:00:25;32.00;87.80
1958;DHT22;979;51.076;13.748;2023-06-24T12:02:55;32.40;84.70
1958;DHT22;979;51.076;13.748;2023-06-24T12:05:27;32.30;82.70
1958;DHT22;979;51.076;13.748;2023-06-24T12:07:58;32.60;83.40
1958;DHT22;979;51.076;13.748;2023-06-24T12:10:30;33.20;83.20
1958;DHT22;979;51.076;13.748;2023-06-24T12:13:01;33.30;80.90
1958;DHT22;979;51.076;13.748;2023-06-24T12:15:30;33.30;79.10
1958;DHT22;979;51.076;13.748;2023-06-24T12:17:59;33.20;79.00
1958;DHT22;979;51.076;13.748;2023-06-24T12:20:39;33.00;78.40
1958;DHT22;979;51.076;13.748;2023-06-24T12:23:10;32.70;78.20
1958;DHT22;979;51.076;13.748;2023-06-24T12:25:42;32.40;78.30
1958;DHT22;979;51.076;13.748;2023-06-24T12:28:11;33.00;81.10
1958;DHT22;979;51.076;13.748;2023-06-24T12:30:39;34.20;81.70
1958;DHT22;979;51.076;13.748;2023-06-24T12:33:09;35.30;80.30
1958;DHT22;979;51.076;13.748;2023-06-24T12:35:41;36.10;77.40
1958;DHT22;979;51.076;13.748;2023-06-24T12:38:09;36.70;76.30
1958;DHT22;979;51.076;13.748;2023-06-24T12:40:40;37.30;75.20
1958;DHT22;979;51.076;13.748;2023-06-24T12:43:14;37.90;75.00
1958;DHT22;979;51.076;13.748;2023-06-24T12:45:43;38.30;71.30
1958;DHT22;979;51.076;13.748;2023-06-24T12:48:13;38.60;72.20
1958;DHT22;979;51.076;13.748;2023-06-24T12:50:45;38.80;69.90
1958;DHT22;979;51.076;13.748;2023-06-24T12:53:20;38.80;67.80
1958;DHT22;979;51.076;13.748;2023-06-24T12:55:52;38.60;66.30
1958;DHT22;979;51.076;13.748;2023-06-24T12:58:23;38.80;64.60
1958;DHT22;979;51.076;13.748;2023-06-24T13:00:51;39.20;64.30
1958;DHT22;979;51.076;13.748;2023-06-24T13:03:20;39.60;60.60
1958;DHT22;979;51.076;13.748;2023-06-24T13:05:52;39.80;59.30
1958;DHT22;979;51.076;13.748;2023-06-24T13:08:21;39.90;58.50
1958;DHT22;979;51.076;13.748;2023-06-24T13:10:49;39.90;56.70
1958;DHT22;979;51.076;13.748;2023-06-24T13:13:17;39.90;56.10
1958;DHT22;979;51.076;13.748;2023-06-24T13:15:48;39.70;55.50
1958;DHT22;979;51.076;13.748;2023-06-24T13:18:16;39.70;55.40
1958;DHT22;979;51.076;13.748;2023-06-24T13:20:48;39.60;54.80
1958;DHT22;979;51.076;13.748;2023-06-24T13:23:18;39.20;53.90
1958;DHT22;979;51.076;13.748;2023-06-24T13:25:47;39.00;53.80
1958;DHT22;979;51.076;13.748;2023-06-24T13:28:17;39.00;53.50
1958;DHT22;979;51.076;13.748;2023-06-24T13:30:48;38.80;53.30
1958;DHT22;979;51.076;13.748;2023-06-24T13:33:21;38.70;53.70
1958;DHT22;979;51.076;13.748;2023-06-24T13:35:51;39.00;53.30
1958;DHT22;979;51.076;13.748;2023-06-24T13:38:24;39.20;52.70
1958;DHT22;979;51.076;13.748;2023-06-24T13:40:52;39.80;53.00
1958;DHT22;979;51.076;13.748;2023-06-24T13:43:28;40.20;52.30
1958;DHT22;979;51.076;13.748;2023-06-24T13:45:56;40.10;50.90
1958;DHT22;979;51.076;13.748;2023-06-24T13:48:24;40.10;50.30
1958;DHT22;979;51.076;13.748;2023-06-24T13:50:54;40.10;50.80
1958;DHT22;979;51.076;13.748;2023-06-24T13:53:23;40.20;50.30
1958;DHT22;979;51.076;13.748;2023-06-24T13:55:51;40.30;49.00
1958;DHT22;979;51.076;13.748;2023-06-24T13:58:21;39.90;48.80
1958;DHT22;979;51.076;13.748;2023-06-24T14:00:50;40.10;49.30
1958;DHT22;979;51.076;13.748;2023-06-24T14:03:20;40.30;49.60
1958;DHT22;979;51.076;13.748;2023-06-24T14:05:49;40.50;49.00
1958;DHT22;979;51.076;13.748;2023-06-24T14:08:17;40.50;48.30
1958;DHT22;979;51.076;13.748;2023-06-24T14:10:47;40.40;47.70
1958;DHT22;979;51.076;13.748;2023-06-24T14:13:17;40.50;48.40
1958;DHT22;979;51.076;13.748;2023-06-24T14:15:46;40.70;48.00
1958;DHT22;979;51.076;13.748;2023-06-24T14:18:14;40.80;47.50
1958;DHT22;979;51.076;13.748;2023-06-24T14:20:42;41.00;47.60
1958;DHT22;979;51.076;13.748;2023-06-24T14:23:11;41.20;47.60
1958;DHT22;979;51.076;13.748;2023-06-24T14:25:39;41.20;46.80
1958;DHT22;979;51.076;13.748;2023-06-24T14:28:09;41.10;46.50
1958;DHT22;979;51.076;13.748;2023-06-24T14:30:37;40.60;45.60
1958;DHT22;979;51.076;13.748;2023-06-24T14:33:06;40.10;45.10
1958;DHT22;979;51.076;13.748;2023-06-24T14:35:34;39.70;45.50
1958;DHT22;979;51.076;13.748;2023-06-24T14:38:04;39.80;45.80
1958;DHT22;979;51.076;13.748;2023-06-24T14:40:33;40.30;46.30
1958;DHT22;979;51.076;13.748;2023-06-24T14:43:02;40.60;45.70
1958;DHT22;979;51.076;13.748;2023-06-24T14:45:32;40.60;45.80
1958;DHT22;979;51.076;13.748;2023-06-24T14:48:00;40.70;46.10
1958;DHT22;979;51.076;13.748;2023-06-24T14:50:29;40.70;45.70
1958;DHT22;979;51.076;13.748;2023-06-24T14:52:57;40.50;44.70
1958;DHT22;979;51.076;13.748;2023-06-24T14:55:26;40.20;45.20
1958;DHT22;979;51.076;13.748;2023-06-24T14:57:56;40.00;45.00
1958;DHT22;979;51.076;13.748;2023-06-24T15:00:25;40.10;45.60
1958;DHT22;979;51.076;13.748;2023-06-24T15:02:55;40.40;46.00
1958;DHT22;979;51.076;13.748;2023-06-24T15:05:23;40.70;46.10
1958;DHT22;979;51.076;13.748;2023-06-24T15:07:52;41.00;45.40
1958;DHT22;979;51.076;13.748;2023-06-24T15:10:20;41.10;45.10
1958;DHT22;979;51.076;13.748;2023-06-24T15:12:49;40.80;44.90
1958;DHT22;979;51.076;13.748;2023-06-24T15:15:17;40.10;44.30
1958;DHT22;979;51.076;13.748;2023-06-24T15:17:46;39.60;44.70
1958;DHT22;979;51.076;13.748;2023-06-24T15:20:16;39.40;45.10
1958;DHT22;979;51.076;13.748;2023-06-24T15:22:47;39.20;44.70
1958;DHT22;979;51.076;13.748;2023-06-24T15:25:17;39.10;44.80
1958;DHT22;979;51.076;13.748;2023-06-24T15:27:46;39.10;44.70
1958;DHT22;979;51.076;13.748;2023-06-24T15:30:14;39.20;44.60
1958;DHT22;979;51.076;13.748;2023-06-24T15:32:45;39.30;44.70
1958;DHT22;979;51.076;13.748;2023-06-24T15:35:13;39.40;44.60
1958;DHT22;979;51.076;13.748;2023-06-24T15:37:43;39.50;44.70
1958;DHT22;979;51.076;13.748;2023-06-24T15:40:11;39.70;44.90
1958;DHT22;979;51.076;13.748;2023-06-24T15:42:40;39.90;44.80
1958;DHT22;979;51.076;13.748;2023-06-24T15:45:09;40.10;44.50
1958;DHT22;979;51.076;13.748;2023-06-24T15:47:37;40.30;44.30
1958;DHT22;979;51.076;13.748;2023-06-24T15:50:06;40.00;44.20
1958;DHT22;979;51.076;13.748;2023-06-24T15:52:34;39.90;43.90
1958;DHT22;979;51.076;13.748;2023-06-24T15:55:05;40.00;44.10
1958;DHT22;979;51.076;13.748;2023-06-24T15:57:37;40.30;44.30
1958;DHT22;979;51.076;13.748;2023-06-24T16:00:09;40.40;44.20
1958;DHT22;979;51.076;13.748;2023-06-24T16:02:39;40.20;43.60
1958;DHT22;979;51.076;13.748;2023-06-24T16:05:08;40.20;43.80
1958;DHT22;979;51.076;13.748;2023-06-24T16:07:37;39.70;43.20
1958;DHT22;979;51.076;13.748;2023-06-24T16:10:10;39.20;43.20
1958;DHT22;979;51.076;13.748;2023-06-24T16:12:38;38.80;43.30
1958;DHT22;979;51.076;13.748;2023-06-24T16:15:07;38.50;43.90
1958;DHT22;979;51.076;13.748;2023-06-24T16:17:36;38.60;43.70
1958;DHT22;979;51.076;13.748;2023-06-24T16:20:05;38.60;43.80
1958;DHT22;979;51.076;13.748;2023-06-24T16:22:34;38.70;43.80
1958;DHT22;979;51.076;13.748;2023-06-24T16:25:03;38.60;43.50
1958;DHT22;979;51.076;13.748;2023-06-24T16:27:33;38.40;43.10
1958;DHT22;979;51.076;13.748;2023-06-24T16:30:05;38.10;43.50
1958;DHT22;979;51.076;13.748;2023-06-24T16:32:34;38.00;43.20
1958;DHT22;979;51.076;13.748;2023-06-24T16:35:04;37.60;43.50
1958;DHT22;979;51.076;13.748;2023-06-24T16:37:34;37.60;43.50
1958;DHT22;979;51.076;13.748;2023-06-24T16:40:06;37.80;44.00